createdAt,value
2018-07-06T00:00:28.945Z,10.80
2018-07-06T00:03:22.151Z,10.53
2018-07-06T00:06:15.482Z,10.90
2018-07-06T00:09:08.860Z,10.90
2018-07-06T00:12:01.848Z,11.90
2018-07-06T00:14:55.068Z,13.33
2018-07-06T00:17:48.320Z,12.80
2018-07-06T00:20:41.544Z,11.87
2018-07-06T00:23:34.698Z,10.67
2018-07-06T00:26:27.851Z,14.73
2018-07-06T00:29:21.133Z,12.30
2018-07-06T00:32:14.594Z,14.53
2018-07-06T00:35:07.935Z,11.63
2018-07-06T00:38:00.936Z,12.13
2018-07-06T00:40:53.990Z,14.93
2018-07-06T00:43:47.716Z,12.70
2018-07-06T00:46:40.645Z,12.90
2018-07-06T00:49:33.658Z,13.00
2018-07-06T00:52:26.692Z,16.23
2018-07-06T00:55:19.575Z,12.93
2018-07-06T00:58:12.905Z,13.53
2018-07-06T01:01:05.833Z,15.83
2018-07-06T01:03:59.673Z,13.17
2018-07-06T01:06:52.900Z,12.57
2018-07-06T01:09:46.025Z,16.17
2018-07-06T01:12:44.350Z,13.77
2018-07-06T01:15:36.658Z,13.40
2018-07-06T01:18:29.771Z,12.47
2018-07-06T01:27:47.433Z,15.53
2018-07-06T01:30:40.622Z,14.80
2018-07-06T01:33:33.422Z,12.83
2018-07-06T01:36:26.369Z,12.37
2018-07-06T01:39:19.556Z,11.43
2018-07-06T01:42:12.965Z,11.10
2018-07-06T01:45:06.441Z,10.70
2018-07-06T01:47:59.636Z,11.30
2018-07-06T01:50:52.555Z,11.17
2018-07-06T01:53:45.633Z,9.37
2018-07-06T01:56:38.654Z,8.73
2018-07-06T01:59:31.739Z,10.23
2018-07-06T02:02:24.968Z,8.93
2018-07-06T02:05:18.063Z,11.07
2018-07-06T02:08:11.126Z,8.47
2018-07-06T02:11:06.413Z,8.43
2018-07-06T02:14:00.713Z,9.13
2018-07-06T02:16:53.625Z,8.57
2018-07-06T02:19:46.496Z,9.13
2018-07-06T02:22:39.541Z,10.73
2018-07-06T02:25:33.049Z,7.73
2018-07-06T02:28:26.087Z,9.07
2018-07-06T02:31:19.327Z,8.67
2018-07-06T02:34:12.209Z,8.57
2018-07-06T02:37:05.611Z,6.97
2018-07-06T02:39:58.591Z,7.77
2018-07-06T02:42:51.665Z,9.77
2018-07-06T02:45:45.013Z,9.57
2018-07-06T02:48:38.071Z,7.73
2018-07-06T02:51:31.330Z,6.50
2018-07-06T02:54:24.393Z,6.70
2018-07-06T02:57:11.759Z,8.10
2018-07-06T03:00:04.849Z,9.73
2018-07-06T03:02:57.930Z,10.97
2018-07-06T03:05:51.106Z,6.87
2018-07-06T03:08:44.240Z,6.83
2018-07-06T03:11:37.553Z,9.93
2018-07-06T03:14:31.531Z,9.27
2018-07-06T03:17:24.794Z,7.10
2018-07-06T03:20:17.779Z,7.70
2018-07-06T03:23:11.086Z,13.50
2018-07-06T03:26:04.075Z,12.53
2018-07-06T03:28:57.157Z,8.40
2018-07-06T03:31:50.568Z,9.80
2018-07-06T03:34:43.660Z,7.97
2018-07-06T03:37:37.265Z,7.30
2018-07-06T03:40:30.592Z,8.27
2018-07-06T03:43:23.740Z,7.10
2018-07-06T03:46:11.065Z,8.03
2018-07-06T03:49:03.849Z,11.53
2018-07-06T03:51:56.739Z,9.00
2018-07-06T03:54:52.520Z,7.60
2018-07-06T03:57:46.383Z,8.20
2018-07-06T04:00:39.902Z,8.63
2018-07-06T04:03:33.015Z,15.47
2018-07-06T04:06:26.288Z,6.43
2018-07-06T04:09:19.534Z,8.97
2018-07-06T04:12:13.632Z,6.90
2018-07-06T04:15:06.773Z,7.87
2018-07-06T04:18:00.540Z,8.90
2018-07-06T04:20:53.680Z,8.13
2018-07-06T04:23:47.435Z,7.90
2018-07-06T04:26:42.691Z,7.10
2018-07-06T04:29:35.815Z,9.33
2018-07-06T04:32:28.886Z,6.90
2018-07-06T04:35:25.569Z,9.43
2018-07-06T04:38:18.827Z,6.67
2018-07-06T04:41:12.215Z,8.70
2018-07-06T04:44:05.353Z,7.67
2018-07-06T04:47:00.499Z,10.40
2018-07-06T04:49:54.324Z,7.30
2018-07-06T04:52:47.379Z,8.83
2018-07-06T04:55:41.518Z,7.23
2018-07-06T04:58:34.635Z,8.53
2018-07-06T05:01:22.171Z,6.60
2018-07-06T05:04:21.867Z,8.80
2018-07-06T05:07:15.172Z,10.10
2018-07-06T05:10:08.038Z,10.57
2018-07-06T05:13:01.189Z,11.97
2018-07-06T05:15:54.193Z,7.80
2018-07-06T05:18:49.073Z,10.33
2018-07-06T05:21:43.014Z,8.30
2018-07-06T05:24:35.947Z,6.60
2018-07-06T05:27:32.367Z,6.63
2018-07-06T05:30:29.300Z,7.70
2018-07-06T05:33:24.469Z,9.37
2018-07-06T05:36:17.515Z,6.50
2018-07-06T05:39:13.508Z,6.77
2018-07-06T05:42:02.224Z,7.23
2018-07-06T05:44:55.806Z,8.70
2018-07-06T05:47:52.659Z,7.30
2018-07-06T05:50:46.168Z,7.57
2018-07-06T05:53:39.262Z,7.30
2018-07-06T05:56:33.825Z,9.20
2018-07-06T05:59:27.083Z,10.63
2018-07-06T06:02:24.530Z,11.30
2018-07-06T06:05:17.527Z,10.23
2018-07-06T06:07:58.169Z,11.77
2018-07-06T06:10:37.219Z,13.53
2018-07-06T06:13:15.889Z,14.40
2018-07-06T06:15:54.811Z,13.63
2018-07-06T06:18:36.219Z,15.23
2018-07-06T06:21:17.635Z,12.00
2018-07-06T06:23:57.130Z,13.80
2018-07-06T06:26:39.383Z,14.40
2018-07-06T06:29:19.113Z,13.97
2018-07-06T06:32:00.780Z,15.10
2018-07-06T06:34:40.221Z,13.77
2018-07-06T06:37:19.821Z,14.80
2018-07-06T06:39:59.889Z,14.30
2018-07-06T06:42:42.091Z,12.43
2018-07-06T06:45:20.215Z,15.20
2018-07-06T06:48:00.212Z,13.43
2018-07-06T06:50:39.391Z,12.10
2018-07-06T06:53:18.690Z,12.97
2018-07-06T06:56:00.744Z,13.70
2018-07-06T06:58:39.626Z,13.27
2018-07-06T07:01:18.828Z,15.43
2018-07-06T07:03:59.024Z,12.13
2018-07-06T07:06:38.404Z,15.37
2018-07-06T07:09:14.922Z,13.73
2018-07-06T07:11:56.177Z,12.00
2018-07-06T07:14:32.537Z,13.43
2018-07-06T07:17:08.677Z,13.27
2018-07-06T07:19:45.402Z,13.77
2018-07-06T07:22:23.746Z,13.27
2018-07-06T07:25:03.765Z,13.90
2018-07-06T07:27:44.896Z,15.13
2018-07-06T07:30:25.815Z,16.27
2018-07-06T07:33:07.256Z,12.60
2018-07-06T07:35:44.481Z,15.90
2018-07-06T07:38:24.574Z,12.27
2018-07-06T07:41:04.024Z,12.00
2018-07-06T07:43:44.531Z,13.77
2018-07-06T07:46:23.635Z,13.10
2018-07-06T07:49:04.813Z,12.90
2018-07-06T07:52:08.019Z,14.73
2018-07-06T07:54:51.649Z,14.67
2018-07-06T07:57:28.154Z,14.93
2018-07-06T08:00:08.102Z,13.90
2018-07-06T08:02:52.783Z,14.43
2018-07-06T08:05:30.439Z,14.13
2018-07-06T08:08:08.631Z,15.30
2018-07-06T08:10:49.628Z,15.90
2018-07-06T08:13:29.140Z,14.93
2018-07-06T08:16:13.215Z,15.07
2018-07-06T08:18:50.759Z,15.50
2018-07-06T08:21:29.138Z,15.53
2018-07-06T08:24:09.504Z,15.80
2018-07-06T08:26:49.301Z,16.00
2018-07-06T08:29:29.213Z,15.53
2018-07-06T08:34:58.294Z,15.17
2018-07-06T08:37:51.225Z,14.30
2018-07-06T08:40:34.697Z,13.97
2018-07-06T08:43:14.112Z,12.87
2018-07-06T08:45:58.228Z,12.73
2018-07-06T08:48:35.538Z,12.63
2018-07-06T08:51:16.891Z,14.87
2018-07-06T08:53:58.106Z,15.33
2018-07-06T08:56:38.338Z,13.37
2018-07-06T08:59:17.684Z,13.53
2018-07-06T09:01:56.990Z,11.63
2018-07-06T09:04:41.135Z,11.77
2018-07-06T09:07:18.624Z,11.10
2018-07-06T09:09:56.561Z,11.27
2018-07-06T09:12:36.109Z,12.60
2018-07-06T09:15:17.858Z,10.60
2018-07-06T09:17:56.983Z,10.57
2018-07-06T09:20:37.502Z,11.03
2018-07-06T09:23:18.695Z,11.10
2018-07-06T09:26:00.352Z,10.80
2018-07-06T09:28:40.171Z,10.87
2018-07-06T09:31:20.650Z,12.27
2018-07-06T09:34:01.010Z,10.93
2018-07-06T09:36:42.789Z,11.67
2018-07-06T09:39:21.002Z,10.90
2018-07-06T09:42:02.772Z,12.17
2018-07-06T09:44:41.910Z,11.57
2018-07-06T09:47:23.817Z,11.37
2018-07-06T09:50:03.558Z,11.97
2018-07-06T09:52:43.505Z,12.90
2018-07-06T09:55:23.955Z,11.30
2018-07-06T09:58:04.534Z,11.40
2018-07-06T10:01:07.903Z,11.53
2018-07-06T10:03:51.113Z,10.97
2018-07-06T10:06:27.389Z,13.30
2018-07-06T10:09:08.451Z,11.70
2018-07-06T10:11:44.772Z,12.63
2018-07-06T10:14:24.788Z,11.53
2018-07-06T10:17:04.770Z,12.73
2018-07-06T10:19:47.154Z,11.40
2018-07-06T10:22:24.977Z,12.43
2018-07-06T10:25:06.857Z,12.13
2018-07-06T10:27:55.664Z,12.20
2018-07-06T10:30:44.835Z,13.00
2018-07-06T10:33:24.342Z,11.97
2018-07-06T10:36:09.522Z,10.80
2018-07-06T10:38:49.506Z,12.20
2018-07-06T10:41:29.389Z,10.93
2018-07-06T10:44:09.869Z,10.33
2018-07-06T10:47:04.696Z,11.00
2018-07-06T10:49:41.051Z,10.20
2018-07-06T10:52:20.945Z,10.87
2018-07-06T10:55:01.609Z,9.60
2018-07-06T10:57:41.499Z,9.87
2018-07-06T11:00:21.015Z,10.03
2018-07-06T11:02:57.256Z,10.43
2018-07-06T11:05:33.697Z,9.40
2018-07-06T11:08:29.643Z,11.27
2018-07-06T11:11:19.667Z,9.80
2018-07-06T11:14:13.685Z,8.80
2018-07-06T11:16:53.479Z,9.83
2018-07-06T11:19:36.264Z,8.30
2018-07-06T11:22:15.392Z,8.30
2018-07-06T11:24:55.944Z,10.10
2018-07-06T11:27:33.935Z,8.13
2018-07-06T11:30:13.657Z,9.37
2018-07-06T11:32:53.421Z,8.47
2018-07-06T11:35:32.944Z,8.63
2018-07-06T11:38:13.679Z,9.20
2018-07-06T11:40:53.495Z,9.03
2018-07-06T11:43:34.982Z,8.07
2018-07-06T11:46:17.322Z,8.50
2018-07-06T11:49:03.581Z,8.50
2018-07-06T11:51:39.778Z,8.40
2018-07-06T11:54:15.975Z,8.90
2018-07-06T11:56:54.836Z,9.20
2018-07-06T11:59:36.721Z,8.53
2018-07-06T12:02:19.252Z,7.97
2018-07-06T12:05:00.053Z,7.73
2018-07-06T12:07:38.479Z,8.60
2018-07-06T12:10:18.709Z,8.37
2018-07-06T12:13:00.604Z,7.97
2018-07-06T12:15:48.558Z,8.90
2018-07-06T12:18:24.824Z,8.23
2018-07-06T12:21:01.994Z,8.13
2018-07-06T12:23:42.635Z,9.03
2018-07-06T12:26:21.194Z,8.70
2018-07-06T12:29:05.381Z,9.50
2018-07-06T12:31:41.560Z,8.88
2018-07-06T12:34:22.697Z,9.43
2018-07-06T12:37:06.230Z,8.20
2018-07-06T12:39:44.947Z,8.70
2018-07-06T12:42:34.063Z,9.13
2018-07-06T12:45:12.300Z,9.17
2018-07-06T12:50:46.380Z,8.63
2018-07-06T12:53:24.802Z,8.73
2018-07-06T12:56:14.016Z,8.00
2018-07-06T12:58:55.595Z,7.93
2018-07-06T13:01:36.049Z,8.50
2018-07-06T13:04:24.320Z,8.03
2018-07-06T13:07:06.483Z,7.13
2018-07-06T13:09:47.166Z,6.60
2018-07-06T13:12:27.017Z,7.23
2018-07-06T13:15:08.305Z,7.73
2018-07-06T13:17:50.395Z,7.23
2018-07-06T13:20:30.325Z,8.07
2018-07-06T13:23:07.095Z,9.03
2018-07-06T13:25:46.629Z,7.20
2018-07-06T13:28:31.830Z,6.57
2018-07-06T13:31:16.127Z,6.90
2018-07-06T13:33:53.272Z,6.63
2018-07-06T13:36:30.348Z,7.33
2018-07-06T13:39:11.963Z,6.63
2018-07-06T13:41:55.043Z,7.33
2018-07-06T13:44:32.221Z,7.93
2018-07-06T13:47:13.632Z,8.17
2018-07-06T13:52:44.721Z,6.80
2018-07-06T13:55:26.148Z,7.40
2018-07-06T13:58:14.625Z,9.43
2018-07-06T14:01:14.466Z,6.93
2018-07-06T14:04:10.418Z,7.83
2018-07-06T14:06:51.586Z,7.60
2018-07-06T14:09:33.749Z,7.97
2018-07-06T14:12:14.992Z,7.20
2018-07-06T14:14:55.790Z,7.93
2018-07-06T14:17:34.355Z,8.07
2018-07-06T14:20:19.605Z,7.87
2018-07-06T14:22:56.912Z,7.10
2018-07-06T14:25:34.875Z,7.43
2018-07-06T14:28:14.019Z,6.50
2018-07-06T14:31:02.159Z,6.63
2018-07-06T14:33:38.682Z,7.23
2018-07-06T14:36:20.583Z,6.53
2018-07-06T14:38:57.391Z,7.10
2018-07-06T14:41:34.474Z,5.43
2018-07-06T14:44:17.930Z,5.87
2018-07-06T14:47:00.010Z,5.50
2018-07-06T14:49:42.288Z,5.57
2018-07-06T14:52:22.658Z,7.33
2018-07-06T14:54:58.909Z,6.10
2018-07-06T14:57:37.373Z,6.03
2018-07-06T15:00:13.844Z,5.57
2018-07-06T15:02:53.924Z,5.30
2018-07-06T15:05:38.099Z,4.97
2018-07-06T15:08:17.287Z,5.10
2018-07-06T15:10:55.030Z,5.87
2018-07-06T15:13:34.402Z,5.63
2018-07-06T15:16:12.465Z,6.07
2018-07-06T15:18:48.587Z,5.10
2018-07-06T15:21:24.962Z,5.87
2018-07-06T15:24:02.772Z,6.70
2018-07-06T15:26:43.955Z,4.57
2018-07-06T15:29:25.355Z,4.60
2018-07-06T15:32:03.953Z,4.63
2018-07-06T15:34:43.007Z,4.97
2018-07-06T15:37:24.290Z,4.50
2018-07-06T15:40:03.609Z,4.70
2018-07-06T15:42:42.651Z,4.10
2018-07-06T15:45:23.360Z,3.83
2018-07-06T15:48:02.989Z,4.97
2018-07-06T15:50:46.840Z,3.80
2018-07-06T15:53:26.409Z,3.43
2018-07-06T15:56:08.192Z,3.27
2018-07-06T15:58:45.243Z,6.03
2018-07-06T16:01:24.215Z,2.87
2018-07-06T16:04:00.518Z,3.33
2018-07-06T16:06:39.424Z,3.40
2018-07-06T16:09:21.555Z,2.93
2018-07-06T16:12:04.047Z,3.33
2018-07-06T16:14:40.130Z,6.67
2018-07-06T16:17:19.395Z,8.10
2018-07-06T16:19:56.277Z,9.00
2018-07-06T16:22:32.448Z,5.93
2018-07-06T16:25:10.937Z,7.73
2018-07-06T16:27:52.241Z,6.50
2018-07-06T16:30:32.637Z,6.10
2018-07-06T16:33:12.787Z,6.00
2018-07-06T16:35:51.229Z,5.57
2018-07-06T16:38:31.347Z,5.60
2018-07-06T16:41:10.019Z,5.60
2018-07-06T16:43:48.559Z,5.23
2018-07-06T16:46:24.794Z,5.20
2018-07-06T16:49:02.010Z,5.40
2018-07-06T16:51:38.595Z,5.77
2018-07-06T16:54:14.688Z,5.57
2018-07-06T16:56:54.311Z,5.37
2018-07-06T16:59:32.981Z,4.93
2018-07-06T17:02:11.611Z,5.20
2018-07-06T17:04:52.927Z,5.73
2018-07-06T17:07:44.326Z,6.47
2018-07-06T17:10:20.527Z,5.30
2018-07-06T17:12:57.779Z,4.00
2018-07-06T17:15:37.773Z,4.73
2018-07-06T17:18:18.299Z,5.40
2018-07-06T17:20:54.523Z,6.10
2018-07-06T17:23:33.458Z,4.77
2018-07-06T17:26:09.473Z,5.90
2018-07-06T17:28:45.388Z,3.80
2018-07-06T17:31:21.652Z,3.27
2018-07-06T17:34:08.911Z,3.20
2018-07-06T17:36:55.706Z,4.27
2018-07-06T17:39:40.268Z,3.43
2018-07-06T17:42:22.532Z,3.37
2018-07-06T17:45:04.372Z,3.17
2018-07-06T17:47:41.453Z,3.03
2018-07-06T17:50:19.926Z,3.20
2018-07-06T17:52:58.768Z,3.63
2018-07-06T17:55:35.147Z,3.07
2018-07-06T17:58:19.706Z,3.00
2018-07-06T18:00:58.669Z,3.30
2018-07-06T18:03:40.097Z,3.30
2018-07-06T18:06:18.827Z,3.40
2018-07-06T18:08:56.310Z,3.93
2018-07-06T18:11:35.426Z,4.47
2018-07-06T18:14:11.669Z,3.53
2018-07-06T18:16:47.929Z,3.87
2018-07-06T18:19:24.303Z,3.63
2018-07-06T18:22:02.609Z,2.93
2018-07-06T18:24:41.411Z,4.10
2018-07-06T18:27:20.696Z,5.23
2018-07-06T18:30:03.021Z,3.50
2018-07-06T18:32:45.485Z,4.83
2018-07-06T18:35:24.412Z,3.13
2018-07-06T18:38:05.484Z,3.93
2018-07-06T18:40:45.198Z,3.40
2018-07-06T18:43:24.295Z,3.37
2018-07-06T18:46:00.936Z,2.83
2018-07-06T18:48:40.319Z,3.20
2018-07-06T18:51:16.937Z,4.70
2018-07-06T18:53:53.417Z,3.43
2018-07-06T18:56:29.746Z,3.37
2018-07-06T18:59:10.216Z,3.97
2018-07-06T19:01:51.593Z,3.63
2018-07-06T19:04:28.636Z,4.10
2018-07-06T19:07:08.504Z,4.20
2018-07-06T19:09:48.672Z,4.57
2018-07-06T19:12:27.612Z,3.80
2018-07-06T19:17:49.591Z,4.10
2018-07-06T19:20:28.858Z,4.00
2018-07-06T19:23:10.811Z,3.73
2018-07-06T19:25:50.669Z,4.20
2018-07-06T19:28:32.427Z,4.10
2018-07-06T19:31:11.303Z,4.30
2018-07-06T19:33:53.194Z,3.40
2018-07-06T19:36:31.685Z,4.03
2018-07-06T19:39:10.364Z,4.40
2018-07-06T19:41:48.289Z,3.80
2018-07-06T19:44:26.959Z,4.20
2018-07-06T19:47:02.870Z,3.80
2018-07-06T19:49:39.120Z,3.50
2018-07-06T19:52:15.247Z,4.27
2018-07-06T19:54:57.117Z,3.97
2018-07-06T19:57:35.830Z,4.10
2018-07-06T20:00:15.655Z,3.70
2018-07-06T20:02:54.171Z,4.47
2018-07-06T20:05:30.776Z,3.93
2018-07-06T20:08:07.105Z,3.43
2018-07-06T20:10:43.399Z,3.67
2018-07-06T20:13:19.730Z,3.63
2018-07-06T20:15:55.854Z,4.33
2018-07-06T20:18:35.498Z,4.57
2018-07-06T20:21:16.775Z,3.60
2018-07-06T20:23:53.177Z,6.40
2018-07-06T20:26:29.424Z,5.10
2018-07-06T20:29:06.092Z,4.00
2018-07-06T20:31:43.064Z,4.17
2018-07-06T20:34:19.149Z,4.83
2018-07-06T20:36:58.813Z,4.13
2018-07-06T20:39:34.960Z,4.30
2018-07-06T20:42:11.053Z,4.00
2018-07-06T20:44:47.086Z,4.17
2018-07-06T20:47:23.175Z,5.37
2018-07-06T20:49:59.666Z,4.93
2018-07-06T20:52:40.017Z,4.20
2018-07-06T20:55:16.294Z,3.60
2018-07-06T20:57:53.988Z,7.70
2018-07-06T21:00:30.000Z,6.27
2018-07-06T21:03:06.306Z,6.87
2018-07-06T21:05:42.450Z,7.43
2018-07-06T21:08:18.638Z,7.67
2018-07-06T21:10:58.246Z,6.77
2018-07-06T21:13:34.435Z,7.17
2018-07-06T21:16:10.869Z,6.83
2018-07-06T21:18:47.576Z,8.07
2018-07-06T21:21:24.393Z,5.43
2018-07-06T21:24:01.047Z,6.40
2018-07-06T21:26:37.313Z,5.10
2018-07-06T21:29:13.441Z,5.13
2018-07-06T21:31:49.453Z,5.43
2018-07-06T21:34:26.488Z,4.47
2018-07-06T21:37:02.911Z,5.83
2018-07-06T21:39:38.924Z,5.33
2018-07-06T21:42:14.865Z,6.00
2018-07-06T21:44:51.035Z,5.87
2018-07-06T21:47:27.132Z,6.30
2018-07-06T21:50:04.587Z,5.90
2018-07-06T21:52:41.527Z,6.53
2018-07-06T21:55:17.618Z,7.67
2018-07-06T21:57:53.830Z,6.30
2018-07-06T22:00:37.136Z,6.10
2018-07-06T22:03:13.522Z,5.70
2018-07-06T22:05:49.615Z,6.37
2018-07-06T22:08:25.882Z,7.63
2018-07-06T22:11:02.031Z,8.00
2018-07-06T22:13:38.125Z,6.93
2018-07-06T22:16:14.472Z,8.67
2018-07-06T22:18:50.770Z,8.40
2018-07-06T22:21:27.217Z,8.73
2018-07-06T22:24:03.537Z,10.67
2018-07-06T22:26:39.635Z,7.63
2018-07-06T22:29:15.631Z,6.67
2018-07-06T22:31:51.968Z,6.37
2018-07-06T22:34:28.313Z,7.97
2018-07-06T22:37:05.805Z,6.57
2018-07-06T22:39:41.844Z,6.60
2018-07-06T22:42:18.028Z,6.20
2018-07-06T22:44:54.255Z,7.07
2018-07-06T22:47:30.437Z,7.90
2018-07-06T22:50:06.635Z,6.57
2018-07-06T22:52:42.789Z,5.40
2018-07-06T22:55:18.947Z,5.87
2018-07-06T22:57:54.970Z,6.83
2018-07-06T23:00:31.518Z,5.77
2018-07-06T23:03:07.189Z,6.53
2018-07-06T23:05:43.234Z,6.37
2018-07-06T23:08:19.307Z,7.93
2018-07-06T23:10:55.576Z,5.97
2018-07-06T23:13:31.953Z,6.03
2018-07-06T23:16:08.024Z,7.87
2018-07-06T23:18:43.982Z,5.97
2018-07-06T23:21:20.276Z,6.30
2018-07-06T23:23:56.093Z,6.30
2018-07-06T23:26:32.089Z,6.87
2018-07-06T23:29:08.286Z,7.47
2018-07-06T23:31:46.076Z,8.70
2018-07-06T23:34:22.212Z,9.20
2018-07-06T23:36:58.243Z,9.27
2018-07-06T23:39:35.877Z,6.50
2018-07-06T23:42:11.784Z,9.17
2018-07-06T23:44:47.718Z,7.07
2018-07-06T23:47:24.082Z,7.13
2018-07-06T23:50:00.418Z,6.70
2018-07-06T23:52:38.197Z,6.10
2018-07-06T23:55:19.285Z,7.53
2018-07-06T23:57:55.927Z,8.40
